createdAt,value
2023-03-04T00:01:34.576Z,2.61
2023-03-04T00:06:38.349Z,2.54
2023-03-04T00:11:41.428Z,2.54
2023-03-04T00:16:44.832Z,2.58
2023-03-04T00:21:48.092Z,2.56
2023-03-04T00:26:51.699Z,2.56
2023-03-04T00:31:55.081Z,2.58
2023-03-04T00:37:01.704Z,2.66
2023-03-04T00:42:05.424Z,2.79
2023-03-04T00:47:08.844Z,2.80
2023-03-04T00:52:12.104Z,2.79
2023-03-04T00:57:15.333Z,2.73
2023-03-04T01:02:19.381Z,2.67
2023-03-04T01:07:23.002Z,2.64
2023-03-04T01:12:26.114Z,2.63
2023-03-04T01:17:29.453Z,2.53
2023-03-04T01:22:33.049Z,2.45
2023-03-04T01:27:36.257Z,2.49
2023-03-04T01:32:39.554Z,2.56
2023-03-04T01:37:42.794Z,2.67
2023-03-04T01:42:46.424Z,2.68
2023-03-04T01:47:50.722Z,2.75
2023-03-04T01:52:54.118Z,2.81
2023-03-04T01:57:57.961Z,2.76
2023-03-04T02:03:11.628Z,2.70
2023-03-04T02:08:17.155Z,2.65
2023-03-04T02:13:20.457Z,2.66
2023-03-04T02:18:26.280Z,2.68
2023-03-04T02:23:38.602Z,2.69
2023-03-04T02:28:42.574Z,2.64
2023-03-04T02:33:45.873Z,2.62
2023-03-04T02:38:53.557Z,2.70
2023-03-04T02:43:57.366Z,2.82
2023-03-04T02:49:00.704Z,2.87
2023-03-04T02:54:05.344Z,2.84
2023-03-04T02:59:09.208Z,2.86
2023-03-04T03:04:13.149Z,2.81
2023-03-04T03:09:18.452Z,2.77
2023-03-04T03:14:21.858Z,2.72
2023-03-04T03:19:25.634Z,2.69
2023-03-04T03:24:29.299Z,2.70
2023-03-04T03:29:32.518Z,2.77
2023-03-04T03:34:35.890Z,2.88
2023-03-04T03:39:42.167Z,2.92
2023-03-04T03:44:45.700Z,2.90
2023-03-04T03:49:51.648Z,2.94
2023-03-04T03:54:54.820Z,2.93
2023-03-04T03:59:58.137Z,2.88
2023-03-04T04:05:01.423Z,2.96
2023-03-04T04:10:05.743Z,2.94
2023-03-04T04:15:12.193Z,2.88
2023-03-04T04:20:15.579Z,2.76
2023-03-04T04:25:18.695Z,2.70
2023-03-04T04:30:21.906Z,2.70
2023-03-04T04:35:25.175Z,2.77
2023-03-04T04:40:28.321Z,2.82
2023-03-04T04:45:31.825Z,2.79
2023-03-04T04:50:34.922Z,2.76
2023-03-04T04:55:38.167Z,2.77
2023-03-04T05:00:41.313Z,2.72
2023-03-04T05:05:44.459Z,2.59
2023-03-04T05:10:48.382Z,2.61
2023-03-04T05:15:53.612Z,2.70
2023-03-04T05:20:59.699Z,2.80
2023-03-04T05:26:05.231Z,2.68
2023-03-04T05:31:08.880Z,2.59
2023-03-04T05:36:12.250Z,2.59
2023-03-04T05:41:15.897Z,2.51
2023-03-04T05:46:25.792Z,2.52
2023-03-04T05:51:29.254Z,2.47
2023-03-04T05:56:33.775Z,2.49
2023-03-04T06:01:36.978Z,2.46
2023-03-04T06:06:40.356Z,2.50
2023-03-04T06:11:43.442Z,2.48
2023-03-04T06:16:46.836Z,2.55
2023-03-04T06:21:50.150Z,2.61
2023-03-04T06:26:53.573Z,2.71
2023-03-04T06:31:56.903Z,2.81
2023-03-04T06:37:00.416Z,2.99
2023-03-04T06:42:03.843Z,3.05
2023-03-04T06:47:08.426Z,3.06
2023-03-04T06:52:13.195Z,3.01
2023-03-04T06:57:16.581Z,2.96
2023-03-04T07:02:19.878Z,3.04
2023-03-04T07:07:23.944Z,3.01
2023-03-04T07:12:27.164Z,2.96
2023-03-04T07:17:30.634Z,2.90
2023-03-04T07:22:33.866Z,2.87
2023-03-04T07:27:38.813Z,2.77
2023-03-04T07:32:42.178Z,2.75
2023-03-04T07:37:45.392Z,2.73
2023-03-04T07:42:52.464Z,2.74
2023-03-04T07:47:55.853Z,2.75
2023-03-04T07:52:59.017Z,2.73
2023-03-04T07:58:03.374Z,2.65
2023-03-04T08:03:06.435Z,2.51
2023-03-04T08:08:09.714Z,2.40
2023-03-04T08:13:12.885Z,2.34
2023-03-04T08:18:16.227Z,2.37
2023-03-04T08:23:19.842Z,2.47
2023-03-04T08:28:23.316Z,2.49
2023-03-04T08:33:26.657Z,2.57
2023-03-04T08:38:29.973Z,2.55
2023-03-04T08:43:34.882Z,2.40
2023-03-04T08:48:39.101Z,2.41
2023-03-04T08:53:42.451Z,2.50
2023-03-04T08:58:45.837Z,2.47
2023-03-04T09:03:49.225Z,2.42
2023-03-04T09:08:52.530Z,2.46
2023-03-04T09:13:55.786Z,2.50
2023-03-04T09:19:00.692Z,2.62
2023-03-04T09:24:04.628Z,2.68
2023-03-04T09:29:07.885Z,2.79
2023-03-04T09:34:11.174Z,2.77
2023-03-04T09:39:14.336Z,2.82
2023-03-04T09:44:28.959Z,2.85
2023-03-04T09:49:32.910Z,2.84
2023-03-04T09:55:05.318Z,2.91
2023-03-04T10:00:21.283Z,2.92
2023-03-04T10:05:27.888Z,3.00
2023-03-04T10:10:36.603Z,3.02
2023-03-04T10:15:44.965Z,3.01
2023-03-04T10:20:54.028Z,3.05
2023-03-04T10:26:00.697Z,3.10
2023-03-04T10:31:06.781Z,3.14
2023-03-04T10:36:31.112Z,3.14
2023-03-04T10:41:34.378Z,3.17
2023-03-04T10:46:45.960Z,3.26
2023-03-04T10:52:04.454Z,3.34
2023-03-04T10:57:23.622Z,3.38
2023-03-04T11:02:31.012Z,3.34
2023-03-04T11:07:54.624Z,3.23
2023-03-04T11:12:58.735Z,3.17
2023-03-04T11:18:06.211Z,3.20
2023-03-04T11:23:39.983Z,3.16
2023-03-04T11:28:52.101Z,3.07
2023-03-04T11:34:29.526Z,3.09
2023-03-04T11:39:41.988Z,3.07
2023-03-04T11:44:45.261Z,3.02
2023-03-04T11:50:10.196Z,2.98
2023-03-04T11:55:42.246Z,2.94
2023-03-04T12:01:06.979Z,2.93
2023-03-04T12:06:27.489Z,2.96
2023-03-04T12:11:40.537Z,2.98
2023-03-04T12:17:09.876Z,3.04
2023-03-04T12:22:31.816Z,2.99
2023-03-04T12:28:03.885Z,3.07
2023-03-04T12:33:25.169Z,3.01
2023-03-04T12:38:31.068Z,2.99
2023-03-04T12:43:52.442Z,3.05
2023-03-04T12:49:03.222Z,3.03
2023-03-04T12:54:12.199Z,2.94
2023-03-04T12:59:21.352Z,2.93
2023-03-04T13:04:38.040Z,3.01
2023-03-04T13:10:04.868Z,3.12
2023-03-04T13:15:08.220Z,3.27
2023-03-04T13:20:18.071Z,3.37
2023-03-04T13:25:44.402Z,3.44
2023-03-04T13:30:57.277Z,3.47
2023-03-04T13:36:05.580Z,3.44
2023-03-04T13:41:20.753Z,3.35
2023-03-04T13:46:24.923Z,3.33
2023-03-04T13:51:42.029Z,3.41
2023-03-04T13:57:10.217Z,3.46
2023-03-04T14:02:19.193Z,3.54
2023-03-04T14:07:29.714Z,3.53
2023-03-04T14:12:36.603Z,3.65
2023-03-04T14:17:42.031Z,3.64
2023-03-04T14:22:45.545Z,3.63
2023-03-04T14:27:49.488Z,3.70
2023-03-04T14:32:54.978Z,3.75
2023-03-04T14:38:18.628Z,3.69
2023-03-04T14:43:23.372Z,3.68
2023-03-04T14:48:32.668Z,3.70
2023-03-04T14:53:36.020Z,3.79
2023-03-04T14:58:55.325Z,3.86
2023-03-04T15:04:12.824Z,3.83
2023-03-04T15:09:21.417Z,3.83
2023-03-04T15:14:46.358Z,3.98
2023-03-04T15:19:59.501Z,4.12
2023-03-04T15:26:07.192Z,4.09
2023-03-04T15:31:21.587Z,4.10
2023-03-04T15:44:03.590Z,3.99
2023-03-04T15:49:06.807Z,4.06
2023-03-04T15:54:14.276Z,4.14
2023-03-04T15:59:17.927Z,4.19
2023-03-04T16:04:21.673Z,4.19
2023-03-04T16:09:25.184Z,4.25
2023-03-04T16:14:32.795Z,4.25
2023-03-04T16:19:36.496Z,4.33
2023-03-04T16:24:40.017Z,4.35
2023-03-04T16:29:43.223Z,4.35
2023-03-04T16:34:46.747Z,4.36
2023-03-04T16:39:51.141Z,4.36
2023-03-04T16:44:55.561Z,4.34
2023-03-04T16:49:59.045Z,4.36
2023-03-04T16:55:05.002Z,4.36
2023-03-04T17:00:10.735Z,4.36
2023-03-04T17:05:19.270Z,4.39
2023-03-04T17:10:23.970Z,4.38
2023-03-04T17:15:27.316Z,4.43
2023-03-04T17:20:30.656Z,4.42
2023-03-04T17:25:34.245Z,4.38
2023-03-04T17:30:38.349Z,4.35
2023-03-04T17:35:41.511Z,4.34
2023-03-04T17:40:45.185Z,4.34
2023-03-04T17:45:48.972Z,4.34
2023-03-04T17:50:53.016Z,4.36
2023-03-04T17:56:00.292Z,4.37
2023-03-04T18:01:15.317Z,4.33
2023-03-04T18:06:19.706Z,4.31
2023-03-04T18:11:25.305Z,4.31
2023-03-04T18:16:29.227Z,4.33
2023-03-04T18:21:32.839Z,4.34
2023-03-04T18:26:36.283Z,4.29
2023-03-04T18:31:39.913Z,4.29
2023-03-04T18:36:43.432Z,4.30
2023-03-04T18:41:46.809Z,4.31
2023-03-04T18:46:56.538Z,4.29
2023-03-04T18:51:59.803Z,4.32
2023-03-04T18:57:09.730Z,4.31
2023-03-04T19:02:54.356Z,4.23
2023-03-04T19:07:57.632Z,4.20
2023-03-04T19:13:01.046Z,4.23
2023-03-04T19:18:05.740Z,4.30
2023-03-04T19:23:10.370Z,4.32
2023-03-04T19:28:13.943Z,4.32
2023-03-04T19:33:17.182Z,4.34
2023-03-04T19:38:20.293Z,4.33
2023-03-04T19:43:23.508Z,4.40
2023-03-04T19:48:26.824Z,4.45
2023-03-04T19:53:30.150Z,4.46
2023-03-04T19:58:34.005Z,4.45
2023-03-04T20:03:37.293Z,4.47
2023-03-04T20:08:40.715Z,4.54
2023-03-04T20:13:44.049Z,4.66
2023-03-04T20:18:47.332Z,4.73
2023-03-04T20:23:51.112Z,4.75
2023-03-04T20:28:54.811Z,4.80
2023-03-04T20:33:59.968Z,4.84
2023-03-04T20:39:10.264Z,4.76
2023-03-04T20:44:21.882Z,4.69
2023-03-04T20:49:27.964Z,4.52
2023-03-04T20:54:31.303Z,4.40
2023-03-04T20:59:35.699Z,4.34
2023-03-04T21:04:39.334Z,4.32
2023-03-04T21:09:44.101Z,4.25
2023-03-04T21:14:47.520Z,4.30
2023-03-04T21:19:50.672Z,4.35
2023-03-04T21:24:54.139Z,4.35
2023-03-04T21:29:58.382Z,4.33
2023-03-04T21:35:01.902Z,4.39
2023-03-04T21:40:05.821Z,4.34
2023-03-04T21:45:10.952Z,4.31
2023-03-04T21:50:14.743Z,4.31
2023-03-04T21:55:18.136Z,4.35
2023-03-04T22:00:21.936Z,4.38
2023-03-04T22:05:25.379Z,4.31
2023-03-04T22:10:29.224Z,4.25
2023-03-04T22:15:33.002Z,4.21
2023-03-04T22:20:39.514Z,4.22
2023-03-04T22:25:42.924Z,4.22
2023-03-04T22:30:46.480Z,4.21
2023-03-04T22:35:50.492Z,4.20
2023-03-04T22:40:53.713Z,4.19
2023-03-04T22:46:00.369Z,4.21
2023-03-04T22:51:08.789Z,4.29
2023-03-04T22:56:13.423Z,4.33
2023-03-04T23:01:17.980Z,4.34
2023-03-04T23:06:27.982Z,4.31
2023-03-04T23:11:35.623Z,4.27
2023-03-04T23:16:43.542Z,4.25
2023-03-04T23:21:46.868Z,4.24
2023-03-04T23:26:52.568Z,4.23
2023-03-04T23:31:55.941Z,4.20
2023-03-04T23:36:59.145Z,4.18
2023-03-04T23:42:02.496Z,4.17
2023-03-04T23:47:06.162Z,4.17
2023-03-04T23:52:10.117Z,4.16
2023-03-04T23:57:13.411Z,4.15
